sensor_id;sensor_type;location;lat;lon;timestamp;pressure;altitude;pressure_sealevel;temperature;humidity
9717;BME280;4897;43.570;27.832;2023-01-19T00:00:25;98419.75;;;13.37;100.00
9717;BME280;4897;43.570;27.832;2023-01-19T00:02:52;98400.94;;;13.21;100.00
9717;BME280;4897;43.570;27.832;2023-01-19T00:05:19;98421.75;;;13.27;100.00
9717;BME280;4897;43.570;27.832;2023-01-19T00:07:47;98423.13;;;13.31;100.00
9717;BME280;4897;43.570;27.832;2023-01-19T00:10:15;98413.69;;;13.19;100.00
9717;BME280;4897;43.570;27.832;2023-01-19T00:12:42;98434.00;;;13.22;100.00
9717;BME280;4897;43.570;27.832;2023-01-19T00:15:10;98409.31;;;13.10;100.00
9717;BME280;4897;43.570;27.832;2023-01-19T00:17:37;98419.38;;;13.16;100.00
9717;BME280;4897;43.570;27.832;2023-01-19T00:20:07;98426.09;;;13.12;100.00
9717;BME280;4897;43.570;27.832;2023-01-19T00:22:35;98415.63;;;13.01;100.00
9717;BME280;4897;43.570;27.832;2023-01-19T00:25:04;98430.09;;;13.08;100.00
9717;BME280;4897;43.570;27.832;2023-01-19T00:27:31;98419.31;;;13.00;100.00
9717;BME280;4897;43.570;27.832;2023-01-19T00:29:59;98427.38;;;13.00;100.00
9717;BME280;4897;43.570;27.832;2023-01-19T00:32:26;98416.63;;;13.00;100.00
9717;BME280;4897;43.570;27.832;2023-01-19T00:34:53;98388.13;;;12.91;100.00
9717;BME280;4897;43.570;27.832;2023-01-19T00:37:20;98419.38;;;13.16;100.00
9717;BME280;4897;43.570;27.832;2023-01-19T00:39:47;98399.53;;;13.01;100.00
9717;BME280;4897;43.570;27.832;2023-01-19T00:42:15;98416.06;;;13.22;100.00
9717;BME280;4897;43.570;27.832;2023-01-19T00:44:59;98429.81;;;13.27;100.00
9717;BME280;4897;43.570;27.832;2023-01-19T00:47:26;98424.44;;;13.19;100.00
9717;BME280;4897;43.570;27.832;2023-01-19T00:49:53;98416.69;;;13.08;100.00
9717;BME280;4897;43.570;27.832;2023-01-19T00:52:20;98420.03;;;13.10;100.00
9717;BME280;4897;43.570;27.832;2023-01-19T00:54:47;98414.47;;;13.04;100.00
9717;BME280;4897;43.570;27.832;2023-01-19T00:57:15;98413.84;;;13.10;100.00
9717;BME280;4897;43.570;27.832;2023-01-19T00:59:43;98409.97;;;13.04;100.00
9717;BME280;4897;43.570;27.832;2023-01-19T01:02:10;98390.94;;;12.90;100.00
9717;BME280;4897;43.570;27.832;2023-01-19T01:04:37;98399.53;;;13.01;100.00
9717;BME280;4897;43.570;27.832;2023-01-19T01:07:04;98415.00;;;13.07;100.00
9717;BME280;4897;43.570;27.832;2023-01-19T01:09:31;98305.69;;;12.51;100.00
9717;BME280;4897;43.570;27.832;2023-01-19T01:11:58;98408.28;;;13.03;100.00
9717;BME280;4897;43.570;27.832;2023-01-19T01:14:26;98404.28;;;13.07;100.00
9717;BME280;4897;43.570;27.832;2023-01-19T01:16:53;98396.19;;;12.99;100.00
9717;BME280;4897;43.570;27.832;2023-01-19T01:19:20;98400.91;;;13.05;100.00
9717;BME280;4897;43.570;27.832;2023-01-19T01:21:47;98400.56;;;13.08;100.00
9717;BME280;4897;43.570;27.832;2023-01-19T01:24:15;98411.31;;;13.16;100.00
9717;BME280;4897;43.570;27.832;2023-01-19T01:26:43;98394.22;;;13.17;100.00
9717;BME280;4897;43.570;27.832;2023-01-19T01:29:10;98411.03;;;13.27;100.00
9717;BME280;4897;43.570;27.832;2023-01-19T01:31:38;98400.47;;;13.34;100.00
9717;BME280;4897;43.570;27.832;2023-01-19T01:34:06;98350.63;;;13.15;100.00
9717;BME280;4897;43.570;27.832;2023-01-19T01:36:33;98399.81;;;13.40;100.00
9717;BME280;4897;43.570;27.832;2023-01-19T01:39:00;98365.38;;;13.19;100.00
9717;BME280;4897;43.570;27.832;2023-01-19T01:41:27;98391.91;;;13.22;100.00
9717;BME280;4897;43.570;27.832;2023-01-19T01:43:55;98384.16;;;13.19;100.00
9717;BME280;4897;43.570;27.832;2023-01-19T01:46:25;98406.16;;;13.31;100.00
9717;BME280;4897;43.570;27.832;2023-01-19T01:48:59;98405.00;;;13.33;100.00
9717;BME280;4897;43.570;27.832;2023-01-19T01:51:30;98401.31;;;13.34;100.00
9717;BME280;4897;43.570;27.832;2023-01-19T01:54:12;98415.59;;;13.35;100.00
9717;BME280;4897;43.570;27.832;2023-01-19T01:56:42;98399.78;;;13.32;100.00
9717;BME280;4897;43.570;27.832;2023-01-19T01:59:13;98423.47;;;13.44;100.00
9717;BME280;4897;43.570;27.832;2023-01-19T02:01:50;98365.53;;;13.10;100.00
9717;BME280;4897;43.570;27.832;2023-01-19T02:04:36;98428.34;;;13.33;100.00
9717;BME280;4897;43.570;27.832;2023-01-19T02:07:04;98415.91;;;13.24;100.00
9717;BME280;4897;43.570;27.832;2023-01-19T02:09:48;98344.13;;;12.76;100.00
9717;BME280;4897;43.570;27.832;2023-01-19T02:12:32;98393.97;;;12.95;100.00
9717;BME280;4897;43.570;27.832;2023-01-19T02:15:18;98441.19;;;13.13;100.00
9717;BME280;4897;43.570;27.832;2023-01-19T02:17:45;98442.72;;;13.16;100.00
9717;BME280;4897;43.570;27.832;2023-01-19T02:20:14;98443.94;;;12.96;100.00
9717;BME280;4897;43.570;27.832;2023-01-19T02:22:46;98451.22;;;13.03;100.00
9717;BME280;4897;43.570;27.832;2023-01-19T02:25:17;98451.97;;;12.88;100.00
9717;BME280;4897;43.570;27.832;2023-01-19T02:27:44;98449.47;;;12.86;100.00
9717;BME280;4897;43.570;27.832;2023-01-19T02:30:12;98442.06;;;12.80;100.00
9717;BME280;4897;43.570;27.832;2023-01-19T02:32:41;98452.63;;;12.81;100.00
9717;BME280;4897;43.570;27.832;2023-01-19T02:35:09;98434.50;;;12.75;100.00
9717;BME280;4897;43.570;27.832;2023-01-19T02:37:37;98239.41;;;11.60;100.00
9717;BME280;4897;43.570;27.832;2023-01-19T02:40:09;98423.47;;;12.87;100.00
9717;BME280;4897;43.570;27.832;2023-01-19T02:42:40;98405.84;;;12.84;100.00
9717;BME280;4897;43.570;27.832;2023-01-19T02:45:10;98421.31;;;12.98;100.00
9717;BME280;4897;43.570;27.832;2023-01-19T02:47:41;98405.38;;;12.89;100.00
9717;BME280;4897;43.570;27.832;2023-01-19T02:50:31;98409.59;;;12.99;100.00
9717;BME280;4897;43.570;27.832;2023-01-19T02:53:08;98420.03;;;13.10;100.00
9717;BME280;4897;43.570;27.832;2023-01-19T02:55:36;98404.91;;;13.01;100.00
9717;BME280;4897;43.570;27.832;2023-01-19T02:58:12;98400.19;;;12.95;100.00
9717;BME280;4897;43.570;27.832;2023-01-19T03:00:45;98413.69;;;13.11;100.00
9717;BME280;4897;43.570;27.832;2023-01-19T03:03:24;98401.63;;;13.15;100.00
9717;BME280;4897;43.570;27.832;2023-01-19T03:06:02;98406.81;;;13.17;100.00
9717;BME280;4897;43.570;27.832;2023-01-19T03:08:41;98399.78;;;13.16;100.00
9717;BME280;4897;43.570;27.832;2023-01-19T03:11:11;98403.28;;;13.16;100.00
9717;BME280;4897;43.570;27.832;2023-01-19T03:13:44;98391.19;;;13.12;100.00
9717;BME280;4897;43.570;27.832;2023-01-19T03:16:16;98405.16;;;13.24;100.00
9717;BME280;4897;43.570;27.832;2023-01-19T03:18:50;98409.00;;;13.21;100.00
9717;BME280;4897;43.570;27.832;2023-01-19T03:21:18;98401.78;;;13.22;100.00
9717;BME280;4897;43.570;27.832;2023-01-19T03:23:48;98399.91;;;13.14;100.00
9717;BME280;4897;43.570;27.832;2023-01-19T03:26:21;98378.38;;;12.98;100.00
9717;BME280;4897;43.570;27.832;2023-01-19T03:28:53;98385.03;;;13.20;100.00
9717;BME280;4897;43.570;27.832;2023-01-19T03:31:23;98370.25;;;13.24;100.00
9717;BME280;4897;43.570;27.832;2023-01-19T03:33:53;98385.34;;;13.25;100.00
9717;BME280;4897;43.570;27.832;2023-01-19T03:36:26;98389.91;;;13.24;100.00
9717;BME280;4897;43.570;27.832;2023-01-19T03:38:56;98395.94;;;13.18;100.00
9717;BME280;4897;43.570;27.832;2023-01-19T03:41:24;98397.44;;;13.29;100.00
9717;BME280;4897;43.570;27.832;2023-01-19T03:43:55;98403.66;;;13.29;100.00
9717;BME280;4897;43.570;27.832;2023-01-19T03:46:23;98413.72;;;13.35;100.00
9717;BME280;4897;43.570;27.832;2023-01-19T03:48:51;98415.59;;;13.35;100.00
9717;BME280;4897;43.570;27.832;2023-01-19T03:51:20;98431.53;;;13.36;100.00
9717;BME280;4897;43.570;27.832;2023-01-19T03:53:47;98426.81;;;13.38;100.00
9717;BME280;4897;43.570;27.832;2023-01-19T03:56:20;98423.47;;;13.28;100.00
9717;BME280;4897;43.570;27.832;2023-01-19T03:58:47;98407.69;;;13.33;100.00
9717;BME280;4897;43.570;27.832;2023-01-19T04:01:16;98327.69;;;12.87;100.00
9717;BME280;4897;43.570;27.832;2023-01-19T04:03:45;98406.34;;;13.37;100.00
9717;BME280;4897;43.570;27.832;2023-01-19T04:06:12;98396.28;;;13.39;100.00
9717;BME280;4897;43.570;27.832;2023-01-19T04:08:39;98376.47;;;13.24;100.00
9717;BME280;4897;43.570;27.832;2023-01-19T04:11:06;98397.97;;;13.32;100.00
9717;BME280;4897;43.570;27.832;2023-01-19T04:13:34;98413.22;;;13.48;100.00
9717;BME280;4897;43.570;27.832;2023-01-19T04:16:02;98397.97;;;13.48;100.00
9717;BME280;4897;43.570;27.832;2023-01-19T04:18:32;98374.78;;;13.31;100.00
9717;BME280;4897;43.570;27.832;2023-01-19T04:21:00;98414.44;;;13.45;100.00
9717;BME280;4897;43.570;27.832;2023-01-19T04:23:27;98394.91;;;13.35;100.00
9717;BME280;4897;43.570;27.832;2023-01-19T04:25:56;98404.19;;;13.49;100.00
9717;BME280;4897;43.570;27.832;2023-01-19T04:28:23;98384.88;;;13.53;100.00
9717;BME280;4897;43.570;27.832;2023-01-19T04:30:50;98398.63;;;13.50;100.00
9717;BME280;4897;43.570;27.832;2023-01-19T04:33:17;98378.50;;;13.46;100.00
9717;BME280;4897;43.570;27.832;2023-01-19T04:35:45;98397.78;;;13.50;100.00
9717;BME280;4897;43.570;27.832;2023-01-19T04:38:12;98401.81;;;13.54;100.00
9717;BME280;4897;43.570;27.832;2023-01-19T04:40:39;98371.47;;;13.45;100.00
9717;BME280;4897;43.570;27.832;2023-01-19T04:43:06;98382.88;;;13.55;100.00
9717;BME280;4897;43.570;27.832;2023-01-19T04:45:33;98405.69;;;13.51;100.00
9717;BME280;4897;43.570;27.832;2023-01-19T04:48:01;98408.72;;;13.48;100.00
9717;BME280;4897;43.570;27.832;2023-01-19T04:50:28;98368.41;;;13.24;100.00
9717;BME280;4897;43.570;27.832;2023-01-19T04:52:56;98413.91;;;13.50;100.00
9717;BME280;4897;43.570;27.832;2023-01-19T04:55:23;98426.53;;;13.49;100.00
9717;BME280;4897;43.570;27.832;2023-01-19T04:57:50;98414.06;;;13.40;100.00
9717;BME280;4897;43.570;27.832;2023-01-19T05:00:18;98334.09;;;12.94;100.00
9717;BME280;4897;43.570;27.832;2023-01-19T05:02:45;98386.72;;;13.37;100.00
9717;BME280;4897;43.570;27.832;2023-01-19T05:05:12;98430.53;;;13.45;100.00
9717;BME280;4897;43.570;27.832;2023-01-19T05:07:39;98425.84;;;13.55;100.00
9717;BME280;4897;43.570;27.832;2023-01-19T05:10:09;98418.09;;;13.44;100.00
9717;BME280;4897;43.570;27.832;2023-01-19T05:12:36;98426.34;;;13.59;100.00
9717;BME280;4897;43.570;27.832;2023-01-19T05:15:04;98428.03;;;13.60;100.00
9717;BME280;4897;43.570;27.832;2023-01-19T05:17:32;98430.88;;;13.58;100.00
9717;BME280;4897;43.570;27.832;2023-01-19T05:19:59;98432.56;;;13.59;100.00
9717;BME280;4897;43.570;27.832;2023-01-19T05:22:26;98409.72;;;13.47;100.00
9717;BME280;4897;43.570;27.832;2023-01-19T05:24:53;98430.19;;;13.64;100.00
9717;BME280;4897;43.570;27.832;2023-01-19T05:27:21;98412.06;;;13.67;100.00
9717;BME280;4897;43.570;27.832;2023-01-19T05:29:48;98431.91;;;13.66;100.00
9717;BME280;4897;43.570;27.832;2023-01-19T05:32:15;98447.66;;;13.69;100.00
9717;BME280;4897;43.570;27.832;2023-01-19T05:34:42;98420.47;;;13.55;100.00
9717;BME280;4897;43.570;27.832;2023-01-19T05:37:09;98458.09;;;13.72;100.00
9717;BME280;4897;43.570;27.832;2023-01-19T05:39:36;98425.50;;;13.67;100.00
9717;BME280;4897;43.570;27.832;2023-01-19T05:42:03;98434.22;;;13.69;100.00
9717;BME280;4897;43.570;27.832;2023-01-19T05:44:31;98433.06;;;13.63;100.00
9717;BME280;4897;43.570;27.832;2023-01-19T05:46:58;98315.00;;;12.89;100.00
9717;BME280;4897;43.570;27.832;2023-01-19T05:49:25;98449.84;;;13.73;100.00
9717;BME280;4897;43.570;27.832;2023-01-19T05:51:52;98425.34;;;13.68;100.00
9717;BME280;4897;43.570;27.832;2023-01-19T05:54:19;98451.72;;;13.81;100.00
9717;BME280;4897;43.570;27.832;2023-01-19T05:56:45;98444.00;;;13.70;100.00
9717;BME280;4897;43.570;27.832;2023-01-19T05:59:12;98444.66;;;13.72;100.00
9717;BME280;4897;43.570;27.832;2023-01-19T06:01:41;98451.06;;;13.87;100.00
9717;BME280;4897;43.570;27.832;2023-01-19T06:04:10;98464.81;;;13.92;100.00
9717;BME280;4897;43.570;27.832;2023-01-19T06:06:37;98507.50;;;13.95;100.00
9717;BME280;4897;43.570;27.832;2023-01-19T06:09:04;98487.31;;;13.99;100.00
9717;BME280;4897;43.570;27.832;2023-01-19T06:11:32;98496.38;;;13.98;100.00
9717;BME280;4897;43.570;27.832;2023-01-19T06:13:59;98432.22;;;13.62;100.00
9717;BME280;4897;43.570;27.832;2023-01-19T06:16:26;98517.88;;;13.98;100.00
9717;BME280;4897;43.570;27.832;2023-01-19T06:18:54;98492.34;;;13.86;100.00
9717;BME280;4897;43.570;27.832;2023-01-19T06:21:21;98447.34;;;13.55;100.00
9717;BME280;4897;43.570;27.832;2023-01-19T06:23:48;98522.63;;;14.04;100.00
9717;BME280;4897;43.570;27.832;2023-01-19T06:26:15;98526.00;;;14.06;100.00
9717;BME280;4897;43.570;27.832;2023-01-19T06:28:42;98521.78;;;14.11;100.00
9717;BME280;4897;43.570;27.832;2023-01-19T06:31:09;98534.38;;;14.11;100.00
9717;BME280;4897;43.570;27.832;2023-01-19T06:33:39;98533.69;;;14.09;100.00
9717;BME280;4897;43.570;27.832;2023-01-19T06:36:07;98538.41;;;14.07;100.00
9717;BME280;4897;43.570;27.832;2023-01-19T06:38:34;98527.66;;;13.99;100.00
9717;BME280;4897;43.570;27.832;2023-01-19T06:41:01;98480.56;;;13.71;100.00
9717;BME280;4897;43.570;27.832;2023-01-19T06:43:29;98545.47;;;14.08;100.00
9717;BME280;4897;43.570;27.832;2023-01-19T06:45:56;98535.72;;;14.07;100.00
9717;BME280;4897;43.570;27.832;2023-01-19T06:48:25;98545.47;;;14.08;100.00
9717;BME280;4897;43.570;27.832;2023-01-19T06:50:52;98528.50;;;13.99;100.00
9717;BME280;4897;43.570;27.832;2023-01-19T06:53:20;98540.41;;;14.13;100.00
9717;BME280;4897;43.570;27.832;2023-01-19T06:55:47;98541.63;;;14.18;100.00
9717;BME280;4897;43.570;27.832;2023-01-19T06:58:14;98537.06;;;14.19;100.00
9717;BME280;4897;43.570;27.832;2023-01-19T07:00:41;98558.75;;;14.25;100.00
9717;BME280;4897;43.570;27.832;2023-01-19T07:03:10;98551.19;;;14.21;100.00
9717;BME280;4897;43.570;27.832;2023-01-19T07:05:43;98338.84;;;13.08;100.00
9717;BME280;4897;43.570;27.832;2023-01-19T07:08:10;98552.72;;;14.39;100.00
9717;BME280;4897;43.570;27.832;2023-01-19T07:10:38;98538.94;;;14.43;100.00
9717;BME280;4897;43.570;27.832;2023-01-19T07:13:05;98560.28;;;14.68;100.00
9717;BME280;4897;43.570;27.832;2023-01-19T07:15:32;98560.28;;;14.76;100.00
9717;BME280;4897;43.570;27.832;2023-01-19T07:17:59;98547.00;;;14.75;100.00
9717;BME280;4897;43.570;27.832;2023-01-19T07:20:29;98567.63;;;14.90;100.00
9717;BME280;4897;43.570;27.832;2023-01-19T07:22:56;98570.63;;;15.03;100.00
9717;BME280;4897;43.570;27.832;2023-01-19T07:25:23;98580.69;;;15.17;100.00
9717;BME280;4897;43.570;27.832;2023-01-19T07:27:55;98572.25;;;15.29;100.00
9717;BME280;4897;43.570;27.832;2023-01-19T07:30:22;98577.22;;;15.40;100.00
9717;BME280;4897;43.570;27.832;2023-01-19T07:32:49;98575.19;;;15.42;100.00
9717;BME280;4897;43.570;27.832;2023-01-19T07:35:16;98456.97;;;14.77;100.00
9717;BME280;4897;43.570;27.832;2023-01-19T07:37:43;98578.59;;;15.52;100.00
9717;BME280;4897;43.570;27.832;2023-01-19T07:40:10;98577.56;;;15.53;100.00
9717;BME280;4897;43.570;27.832;2023-01-19T07:42:37;98576.00;;;15.58;100.00
9717;BME280;4897;43.570;27.832;2023-01-19T07:45:07;98577.47;;;15.69;100.00
9717;BME280;4897;43.570;27.832;2023-01-19T07:47:34;98573.72;;;15.78;100.00
9717;BME280;4897;43.570;27.832;2023-01-19T07:50:01;98592.88;;;15.91;100.00
9717;BME280;4897;43.570;27.832;2023-01-19T07:52:28;98581.41;;;15.89;100.00
9717;BME280;4897;43.570;27.832;2023-01-19T07:54:55;98590.47;;;15.96;100.00
9717;BME280;4897;43.570;27.832;2023-01-19T07:57:22;98598.16;;;16.07;100.00
9717;BME280;4897;43.570;27.832;2023-01-19T07:59:49;98611.53;;;16.23;100.00
9717;BME280;4897;43.570;27.832;2023-01-19T08:02:18;98584.03;;;16.50;100.00
9717;BME280;4897;43.570;27.832;2023-01-19T08:04:46;98587.09;;;16.85;100.00
9717;BME280;4897;43.570;27.832;2023-01-19T08:07:13;98573.31;;;16.79;100.00
9717;BME280;4897;43.570;27.832;2023-01-19T08:09:46;98588.63;;;16.87;100.00
9717;BME280;4897;43.570;27.832;2023-01-19T08:12:13;98578.63;;;16.88;100.00
9717;BME280;4897;43.570;27.832;2023-01-19T08:14:40;98598.13;;;16.98;100.00
9717;BME280;4897;43.570;27.832;2023-01-19T08:17:11;98600.41;;;16.86;100.00
9717;BME280;4897;43.570;27.832;2023-01-19T08:19:41;98585.88;;;16.72;100.00
9717;BME280;4897;43.570;27.832;2023-01-19T08:22:08;98577.56;;;16.59;100.00
9717;BME280;4897;43.570;27.832;2023-01-19T08:24:35;98586.31;;;16.61;100.00
9717;BME280;4897;43.570;27.832;2023-01-19T08:27:02;98586.66;;;16.36;100.00
9717;BME280;4897;43.570;27.832;2023-01-19T08:29:29;98584.13;;;16.34;100.00
9717;BME280;4897;43.570;27.832;2023-01-19T08:31:57;98574.66;;;16.38;100.00
9717;BME280;4897;43.570;27.832;2023-01-19T08:34:26;98558.34;;;16.54;100.00
9717;BME280;4897;43.570;27.832;2023-01-19T08:36:56;98558.72;;;16.51;100.00
9717;BME280;4897;43.570;27.832;2023-01-19T08:39:23;98549.25;;;16.33;100.00
9717;BME280;4897;43.570;27.832;2023-01-19T08:41:50;98588.44;;;16.51;100.00
9717;BME280;4897;43.570;27.832;2023-01-19T08:44:17;98536.66;;;16.25;100.00
9717;BME280;4897;43.570;27.832;2023-01-19T08:46:44;98558.47;;;16.38;100.00
9717;BME280;4897;43.570;27.832;2023-01-19T08:49:11;98554.56;;;16.41;100.00
9717;BME280;4897;43.570;27.832;2023-01-19T08:51:38;98584.16;;;16.57;100.00
9717;BME280;4897;43.570;27.832;2023-01-19T08:54:06;98566.25;;;16.78;100.00
9717;BME280;4897;43.570;27.832;2023-01-19T08:56:34;98552.00;;;16.85;100.00
9717;BME280;4897;43.570;27.832;2023-01-19T08:59:01;98483.94;;;16.74;100.00
9717;BME280;4897;43.570;27.832;2023-01-19T09:01:28;98526.03;;;16.98;100.00
9717;BME280;4897;43.570;27.832;2023-01-19T09:03:55;98556.03;;;17.18;100.00
9717;BME280;4897;43.570;27.832;2023-01-19T09:06:22;98534.88;;;17.21;100.00
9717;BME280;4897;43.570;27.832;2023-01-19T09:08:49;98546.03;;;17.47;100.00
9717;BME280;4897;43.570;27.832;2023-01-19T09:11:18;98540.66;;;18.19;100.00
9717;BME280;4897;43.570;27.832;2023-01-19T09:13:45;98532.91;;;18.79;100.00
9717;BME280;4897;43.570;27.832;2023-01-19T09:16:12;98490.13;;;19.43;100.00
9717;BME280;4897;43.570;27.832;2023-01-19T09:18:40;98535.41;;;19.15;100.00
9717;BME280;4897;43.570;27.832;2023-01-19T09:21:08;98512.78;;;18.67;100.00
9717;BME280;4897;43.570;27.832;2023-01-19T09:23:35;98527.84;;;18.76;100.00
9717;BME280;4897;43.570;27.832;2023-01-19T09:26:03;98526.00;;;19.11;100.00
9717;BME280;4897;43.570;27.832;2023-01-19T09:28:32;98542.13;;;19.53;100.00
9717;BME280;4897;43.570;27.832;2023-01-19T09:31:03;98541.16;;;18.99;100.00
9717;BME280;4897;43.570;27.832;2023-01-19T09:33:31;98536.09;;;18.89;100.00
9717;BME280;4897;43.570;27.832;2023-01-19T09:35:58;98504.09;;;19.06;100.00
9717;BME280;4897;43.570;27.832;2023-01-19T09:38:26;98538.28;;;19.07;100.00
9717;BME280;4897;43.570;27.832;2023-01-19T09:40:56;98526.13;;;19.65;100.00
9717;BME280;4897;43.570;27.832;2023-01-19T09:43:34;98545.38;;;19.36;100.00
9717;BME280;4897;43.570;27.832;2023-01-19T09:46:05;98393.75;;;18.87;100.00
9717;BME280;4897;43.570;27.832;2023-01-19T09:48:43;98550.69;;;19.23;100.00
9717;BME280;4897;43.570;27.832;2023-01-19T09:51:14;98531.41;;;19.11;100.00
9717;BME280;4897;43.570;27.832;2023-01-19T09:53:56;98537.84;;;19.03;100.00
9717;BME280;4897;43.570;27.832;2023-01-19T09:56:26;98536.88;;;19.45;100.00
9717;BME280;4897;43.570;27.832;2023-01-19T09:58:56;98529.13;;;18.80;100.00
9717;BME280;4897;43.570;27.832;2023-01-19T10:01:35;98521.97;;;18.24;100.00
9717;BME280;4897;43.570;27.832;2023-01-19T10:07:15;98510.28;;;18.23;100.00
9717;BME280;4897;43.570;27.832;2023-01-19T10:10:04;98508.47;;;19.07;100.00
9717;BME280;4897;43.570;27.832;2023-01-19T10:12:42;98493.25;;;19.06;100.00
9717;BME280;4897;43.570;27.832;2023-01-19T10:15:23;98478.47;;;19.08;100.00
9717;BME280;4897;43.570;27.832;2023-01-19T10:18:05;98488.78;;;19.80;100.00
9717;BME280;4897;43.570;27.832;2023-01-19T10:20:38;98470.97;;;20.25;100.00
9717;BME280;4897;43.570;27.832;2023-01-19T10:23:18;98487.66;;;20.22;100.00
9717;BME280;4897;43.570;27.832;2023-01-19T10:25:46;98478.28;;;20.37;100.00
9717;BME280;4897;43.570;27.832;2023-01-19T10:28:15;98492.47;;;20.46;100.00
9717;BME280;4897;43.570;27.832;2023-01-19T10:30:46;98463.84;;;20.24;100.00
9717;BME280;4897;43.570;27.832;2023-01-19T10:33:13;98453.78;;;20.70;100.00
9717;BME280;4897;43.570;27.832;2023-01-19T10:35:41;98459.22;;;20.05;100.00
9717;BME280;4897;43.570;27.832;2023-01-19T10:38:12;98404.50;;;18.74;100.00
9717;BME280;4897;43.570;27.832;2023-01-19T10:40:48;98508.47;;;19.07;100.00
9717;BME280;4897;43.570;27.832;2023-01-19T10:43:39;98484.16;;;18.86;100.00
9717;BME280;4897;43.570;27.832;2023-01-19T10:46:19;98500.78;;;18.76;100.00
9717;BME280;4897;43.570;27.832;2023-01-19T10:48:48;98499.97;;;18.82;100.00
9717;BME280;4897;43.570;27.832;2023-01-19T10:51:16;98506.34;;;18.96;100.00
9717;BME280;4897;43.570;27.832;2023-01-19T10:53:59;98492.06;;;18.81;100.00
9717;BME280;4897;43.570;27.832;2023-01-19T10:56:30;98485.78;;;19.49;100.00
9717;BME280;4897;43.570;27.832;2023-01-19T10:59:00;98481.25;;;19.62;100.00
9717;BME280;4897;43.570;27.832;2023-01-19T11:01:29;98473.84;;;20.82;100.00
9717;BME280;4897;43.570;27.832;2023-01-19T11:04:00;98447.28;;;20.84;100.00
9717;BME280;4897;43.570;27.832;2023-01-19T11:06:44;98466.69;;;21.07;100.00
9717;BME280;4897;43.570;27.832;2023-01-19T11:09:15;98432.28;;;20.62;100.00
9717;BME280;4897;43.570;27.832;2023-01-19T11:11:45;98460.50;;;20.61;100.00
9717;BME280;4897;43.570;27.832;2023-01-19T11:14:17;98453.13;;;20.03;100.00
9717;BME280;4897;43.570;27.832;2023-01-19T11:16:48;98446.31;;;20.20;100.00
9717;BME280;4897;43.570;27.832;2023-01-19T11:19:23;98408.28;;;20.33;100.00
9717;BME280;4897;43.570;27.832;2023-01-19T11:21:51;98449.97;;;20.97;100.00
9717;BME280;4897;43.570;27.832;2023-01-19T11:24:19;98453.69;;;21.22;98.59
9717;BME280;4897;43.570;27.832;2023-01-19T11:26:48;98453.53;;;21.62;94.22
9717;BME280;4897;43.570;27.832;2023-01-19T11:29:18;98429.50;;;20.88;100.00
9717;BME280;4897;43.570;27.832;2023-01-19T11:31:48;98403.84;;;20.78;100.00
9717;BME280;4897;43.570;27.832;2023-01-19T11:34:29;98413.91;;;20.64;96.69
9717;BME280;4897;43.570;27.832;2023-01-19T11:36:59;98417.00;;;20.74;94.70
9717;BME280;4897;43.570;27.832;2023-01-19T11:39:29;98444.22;;;20.48;99.92
9717;BME280;4897;43.570;27.832;2023-01-19T11:41:59;98424.16;;;20.42;98.71
9717;BME280;4897;43.570;27.832;2023-01-19T11:44:30;98428.09;;;20.79;94.42
9717;BME280;4897;43.570;27.832;2023-01-19T11:47:01;98431.28;;;20.50;100.00
9717;BME280;4897;43.570;27.832;2023-01-19T11:49:35;98427.06;;;20.02;100.00
9717;BME280;4897;43.570;27.832;2023-01-19T11:52:11;98425.56;;;19.73;100.00
9717;BME280;4897;43.570;27.832;2023-01-19T11:54:46;98421.41;;;19.30;100.00
9717;BME280;4897;43.570;27.832;2023-01-19T11:57:18;98420.38;;;19.91;100.00
9717;BME280;4897;43.570;27.832;2023-01-19T11:59:45;98406.72;;;19.52;100.00
9717;BME280;4897;43.570;27.832;2023-01-19T12:02:21;98309.97;;;18.85;100.00
9717;BME280;4897;43.570;27.832;2023-01-19T12:04:51;98420.56;;;19.83;100.00
9717;BME280;4897;43.570;27.832;2023-01-19T12:07:25;98305.16;;;19.54;100.00
9717;BME280;4897;43.570;27.832;2023-01-19T12:10:01;98404.56;;;20.21;100.00
9717;BME280;4897;43.570;27.832;2023-01-19T12:12:32;98405.75;;;20.57;100.00
9717;BME280;4897;43.570;27.832;2023-01-19T12:15:06;98406.72;;;20.89;100.00
9717;BME280;4897;43.570;27.832;2023-01-19T12:17:43;98413.59;;;21.56;93.51
9717;BME280;4897;43.570;27.832;2023-01-19T12:20:21;98422.56;;;20.99;100.00
9717;BME280;4897;43.570;27.832;2023-01-19T12:22:57;98403.78;;;20.97;100.00
9717;BME280;4897;43.570;27.832;2023-01-19T12:25:32;98417.38;;;20.84;100.00
9717;BME280;4897;43.570;27.832;2023-01-19T12:28:08;98416.44;;;20.46;100.00
9717;BME280;4897;43.570;27.832;2023-01-19T12:30:38;98420.81;;;20.40;100.00
9717;BME280;4897;43.570;27.832;2023-01-19T12:33:31;98424.78;;;20.44;100.00
9717;BME280;4897;43.570;27.832;2023-01-19T12:36:04;98393.63;;;19.88;100.00
9717;BME280;4897;43.570;27.832;2023-01-19T12:38:42;98421.59;;;19.88;100.00
9717;BME280;4897;43.570;27.832;2023-01-19T12:41:25;98427.28;;;19.33;100.00
9717;BME280;4897;43.570;27.832;2023-01-19T12:44:23;98440.28;;;19.38;100.00
9717;BME280;4897;43.570;27.832;2023-01-19T12:46:55;98438.03;;;19.13;100.00
9717;BME280;4897;43.570;27.832;2023-01-19T12:49:32;98452.66;;;19.12;100.00
9717;BME280;4897;43.570;27.832;2023-01-19T12:52:22;98441.41;;;18.75;100.00
9717;BME280;4897;43.570;27.832;2023-01-19T12:54:58;98457.69;;;18.54;100.00
9717;BME280;4897;43.570;27.832;2023-01-19T12:57:32;98478.34;;;18.89;100.00
9717;BME280;4897;43.570;27.832;2023-01-19T13:00:02;98456.69;;;18.89;100.00
9717;BME280;4897;43.570;27.832;2023-01-19T13:02:51;98481.09;;;18.95;100.00
9717;BME280;4897;43.570;27.832;2023-01-19T13:05:24;98472.47;;;18.79;100.00
9717;BME280;4897;43.570;27.832;2023-01-19T13:08:20;98498.94;;;19.17;100.00
9717;BME280;4897;43.570;27.832;2023-01-19T13:11:18;98484.66;;;19.02;100.00
9717;BME280;4897;43.570;27.832;2023-01-19T13:16:58;98467.72;;;19.28;100.00
9717;BME280;4897;43.570;27.832;2023-01-19T13:19:41;98479.78;;;19.66;100.00
9717;BME280;4897;43.570;27.832;2023-01-19T13:25:33;98470.31;;;20.49;98.33